createdAt,value
2022-09-20T00:01:32.806Z,96.80
2022-09-20T00:04:05.488Z,96.90
2022-09-20T00:06:34.250Z,96.80
2022-09-20T00:09:03.545Z,97.20
2022-09-20T00:11:33.794Z,97.20
2022-09-20T00:14:02.948Z,97.10
2022-09-20T00:16:33.811Z,96.70
2022-09-20T00:19:06.073Z,96.10
2022-09-20T00:21:36.757Z,95.00
2022-09-20T00:24:04.810Z,94.80
2022-09-20T00:26:32.299Z,94.70
2022-09-20T00:29:00.552Z,94.70
2022-09-20T00:31:28.176Z,95.10
2022-09-20T00:34:15.526Z,95.00
2022-09-20T00:36:43.907Z,95.10
2022-09-20T00:39:16.051Z,95.40
2022-09-20T00:41:43.742Z,95.40
2022-09-20T00:44:54.261Z,95.20
2022-09-20T00:47:40.247Z,94.90
2022-09-20T00:50:33.658Z,95.10
2022-09-20T00:53:26.748Z,95.50
2022-09-20T00:56:01.943Z,95.90
2022-09-20T00:58:32.968Z,95.80
2022-09-20T01:01:00.596Z,95.80
2022-09-20T01:03:32.392Z,95.60
2022-09-20T01:06:03.716Z,95.80
2022-09-20T01:08:34.358Z,95.40
2022-09-20T01:11:02.839Z,96.10
2022-09-20T01:13:30.238Z,96.90
2022-09-20T01:16:00.795Z,97.20
2022-09-20T01:18:30.247Z,97.30
2022-09-20T01:20:58.777Z,97.40
2022-09-20T01:23:46.043Z,97.90
2022-09-20T01:26:42.040Z,98.20
2022-09-20T01:29:23.262Z,98.40
2022-09-20T01:32:01.883Z,98.00
2022-09-20T01:34:37.776Z,98.30
2022-09-20T01:37:17.160Z,98.70
2022-09-20T01:40:10.960Z,98.40
2022-09-20T01:42:43.820Z,98.70
2022-09-20T01:45:30.275Z,99.10
2022-09-20T01:48:16.238Z,99.20
2022-09-20T01:50:58.670Z,99.40
2022-09-20T01:53:41.063Z,99.80
2022-09-20T01:56:29.788Z,99.90
2022-09-20T01:59:24.996Z,99.90
2022-09-20T02:02:01.109Z,99.90
2022-09-20T02:05:02.743Z,99.90
2022-09-20T02:08:07.672Z,99.90
2022-09-20T02:10:50.424Z,99.90
2022-09-20T02:13:39.924Z,99.90
2022-09-20T02:16:26.062Z,99.90
2022-09-20T02:19:12.137Z,99.90
2022-09-20T02:21:49.437Z,99.90
2022-09-20T02:24:44.619Z,99.90
2022-09-20T02:27:46.094Z,99.90
2022-09-20T02:30:29.204Z,99.90
2022-09-20T02:33:28.819Z,99.90
2022-09-20T02:36:43.135Z,99.90
2022-09-20T02:39:17.707Z,99.90
2022-09-20T02:42:05.097Z,99.90
2022-09-20T02:44:58.804Z,99.90
2022-09-20T02:47:36.061Z,99.90
2022-09-20T02:50:14.291Z,99.90
2022-09-20T02:53:09.316Z,99.90
2022-09-20T02:56:07.205Z,99.90
2022-09-20T02:58:42.779Z,99.90
2022-09-20T03:01:25.600Z,99.90
2022-09-20T03:04:14.232Z,99.90
2022-09-20T03:07:13.060Z,99.90
2022-09-20T03:09:52.577Z,99.90
2022-09-20T03:13:01.262Z,99.90
2022-09-20T03:15:58.108Z,99.90
2022-09-20T03:19:07.257Z,99.90
2022-09-20T03:21:34.561Z,99.90
2022-09-20T03:24:10.676Z,99.90
2022-09-20T03:27:06.305Z,99.90
2022-09-20T03:29:52.471Z,99.90
2022-09-20T03:32:38.127Z,99.90
2022-09-20T03:35:23.235Z,99.90
2022-09-20T03:38:18.519Z,99.90
2022-09-20T03:41:04.511Z,99.90
2022-09-20T03:44:01.898Z,99.90
2022-09-20T03:46:33.532Z,99.90
2022-09-20T03:49:35.171Z,99.90
2022-09-20T03:52:40.006Z,99.90
2022-09-20T03:55:16.444Z,99.90
2022-09-20T03:57:46.624Z,99.90
2022-09-20T04:00:25.184Z,99.90
2022-09-20T04:03:20.418Z,99.90
2022-09-20T04:05:51.168Z,99.90
2022-09-20T04:08:48.535Z,99.90
2022-09-20T04:11:37.155Z,99.90
2022-09-20T04:14:23.239Z,99.90
2022-09-20T04:17:16.696Z,99.90
2022-09-20T04:20:05.736Z,99.90
2022-09-20T04:22:33.858Z,99.90
2022-09-20T04:25:05.896Z,99.90
2022-09-20T04:27:54.986Z,99.90
2022-09-20T04:30:30.202Z,99.90
2022-09-20T04:33:21.291Z,99.90
2022-09-20T04:36:15.141Z,99.90
2022-09-20T04:38:42.859Z,99.90
2022-09-20T04:41:30.725Z,99.90
2022-09-20T04:44:28.021Z,99.90
2022-09-20T04:47:32.794Z,99.90
2022-09-20T04:50:38.710Z,99.90
2022-09-20T04:53:25.620Z,99.90
2022-09-20T04:56:22.538Z,99.90
2022-09-20T04:59:21.856Z,99.90
2022-09-20T05:02:27.493Z,99.90
2022-09-20T05:05:32.140Z,99.70
2022-09-20T05:08:37.016Z,99.90
2022-09-20T05:11:23.660Z,99.90
2022-09-20T05:14:02.700Z,99.90
2022-09-20T05:16:58.470Z,99.90
2022-09-20T05:19:28.625Z,99.30
2022-09-20T05:22:23.578Z,98.90
2022-09-20T05:25:02.872Z,99.60
2022-09-20T05:27:37.060Z,99.90
2022-09-20T05:30:28.751Z,99.10
2022-09-20T05:33:00.500Z,99.20
2022-09-20T05:36:10.776Z,98.60
2022-09-20T05:38:47.591Z,98.60
2022-09-20T05:41:56.298Z,98.30
2022-09-20T05:44:50.912Z,98.80
2022-09-20T05:47:53.348Z,98.80
2022-09-20T05:50:49.576Z,98.50
2022-09-20T05:53:38.593Z,98.10
2022-09-20T05:56:27.300Z,98.60
2022-09-20T05:59:00.377Z,98.00
2022-09-20T06:01:59.581Z,97.70
2022-09-20T06:04:40.536Z,97.20
2022-09-20T06:07:15.825Z,96.30
2022-09-20T06:09:51.468Z,96.90
2022-09-20T06:12:41.390Z,96.20
2022-09-20T06:15:14.653Z,96.10
2022-09-20T06:17:50.977Z,95.90
2022-09-20T06:21:12.310Z,95.90
2022-09-20T06:23:39.742Z,95.60
2022-09-20T06:26:24.537Z,96.50
2022-09-20T06:28:58.351Z,96.60
2022-09-20T06:31:27.264Z,96.30
2022-09-20T06:34:11.657Z,95.80
2022-09-20T06:36:59.750Z,95.50
2022-09-20T06:40:24.940Z,95.60
2022-09-20T06:42:54.231Z,95.70
2022-09-20T06:45:21.591Z,95.20
2022-09-20T06:47:48.937Z,94.80
2022-09-20T06:50:17.466Z,95.10
2022-09-20T06:52:46.903Z,95.30
2022-09-20T06:55:24.957Z,95.30
2022-09-20T06:57:56.021Z,94.80
2022-09-20T07:00:23.503Z,94.50
2022-09-20T07:02:50.936Z,93.90
2022-09-20T07:05:22.222Z,92.60
2022-09-20T07:07:49.618Z,92.50
2022-09-20T07:10:17.318Z,91.90
2022-09-20T07:12:44.617Z,91.90
2022-09-20T07:15:12.503Z,91.90
2022-09-20T07:17:39.862Z,91.70
2022-09-20T07:20:07.622Z,90.80
2022-09-20T07:22:35.307Z,90.20
2022-09-20T07:25:02.820Z,90.70
2022-09-20T07:27:30.617Z,90.10
2022-09-20T07:29:58.137Z,90.50
2022-09-20T07:32:25.551Z,90.60
2022-09-20T07:34:52.976Z,90.90
2022-09-20T07:37:20.517Z,91.00
2022-09-20T07:39:47.956Z,90.30
2022-09-20T07:42:15.554Z,90.60
2022-09-20T07:44:43.832Z,90.70
2022-09-20T07:47:11.682Z,91.20
2022-09-20T07:49:39.101Z,90.30
2022-09-20T07:52:06.740Z,90.30
2022-09-20T07:54:34.471Z,90.00
2022-09-20T07:57:01.834Z,89.10
2022-09-20T07:59:29.513Z,87.80
2022-09-20T08:01:59.292Z,88.50
2022-09-20T08:04:26.942Z,87.90
2022-09-20T08:06:54.380Z,87.30
2022-09-20T08:09:21.776Z,87.30
2022-09-20T08:11:49.865Z,87.60
2022-09-20T08:14:19.144Z,87.40
2022-09-20T08:16:50.033Z,85.70
2022-09-20T08:19:21.177Z,85.60
2022-09-20T08:21:50.143Z,85.30
2022-09-20T08:24:18.131Z,84.90
2022-09-20T08:26:48.678Z,84.80
2022-09-20T08:29:16.231Z,84.40
2022-09-20T08:31:44.208Z,84.50
2022-09-20T08:34:14.306Z,82.50
2022-09-20T08:36:47.213Z,82.20
2022-09-20T08:42:17.937Z,83.90
2022-09-20T08:45:00.185Z,84.10
2022-09-20T08:47:31.781Z,84.60
2022-09-20T08:50:08.835Z,84.90
2022-09-20T08:52:40.432Z,82.80
2022-09-20T08:55:20.255Z,82.00
2022-09-20T08:57:55.967Z,81.60
2022-09-20T09:00:27.178Z,82.00
2022-09-20T09:02:59.582Z,79.30
2022-09-20T09:05:41.345Z,78.90
2022-09-20T09:08:16.900Z,79.10
2022-09-20T09:11:13.449Z,79.10
2022-09-20T09:13:49.629Z,78.60
2022-09-20T09:16:23.084Z,76.10
2022-09-20T09:18:53.480Z,76.00
2022-09-20T09:21:29.739Z,75.60
2022-09-20T09:24:18.394Z,72.90
2022-09-20T09:26:46.990Z,73.90
2022-09-20T09:29:14.404Z,73.30
2022-09-20T09:31:42.389Z,74.50
2022-09-20T09:34:28.137Z,75.60
2022-09-20T09:36:57.016Z,75.40
2022-09-20T09:39:28.928Z,75.00
2022-09-20T09:42:01.448Z,75.10
2022-09-20T09:44:33.546Z,75.30
2022-09-20T09:47:01.376Z,76.20
2022-09-20T09:49:36.596Z,74.40
2022-09-20T09:52:27.137Z,73.60
2022-09-20T09:55:04.623Z,74.90
2022-09-20T09:57:43.940Z,79.90
2022-09-20T10:00:22.324Z,80.20
2022-09-20T10:03:14.372Z,83.00
2022-09-20T10:06:04.925Z,84.00
2022-09-20T10:08:43.524Z,85.00
2022-09-20T10:11:29.583Z,85.10
2022-09-20T10:14:24.830Z,85.70
2022-09-20T10:17:21.554Z,86.80
2022-09-20T10:20:15.932Z,87.30
2022-09-20T10:23:14.670Z,86.50
2022-09-20T10:26:01.660Z,86.40
2022-09-20T10:28:51.070Z,86.20
2022-09-20T10:31:25.951Z,86.40
2022-09-20T10:34:24.400Z,86.20
2022-09-20T10:36:58.663Z,87.70
2022-09-20T10:39:30.197Z,86.70
2022-09-20T10:42:24.656Z,86.30
2022-09-20T10:46:03.870Z,86.70
2022-09-20T10:48:33.912Z,84.00
2022-09-20T10:51:16.025Z,84.40
2022-09-20T10:54:32.147Z,79.60
2022-09-20T10:57:31.000Z,79.60
2022-09-20T11:00:18.509Z,80.30
2022-09-20T11:02:59.985Z,82.10
2022-09-20T11:05:46.308Z,82.80
2022-09-20T11:08:23.082Z,82.20
2022-09-20T11:11:24.465Z,82.50
2022-09-20T11:14:13.509Z,78.00
2022-09-20T11:16:45.254Z,78.50
2022-09-20T11:19:27.308Z,79.00
2022-09-20T11:22:01.728Z,80.70
2022-09-20T11:24:35.553Z,83.00
2022-09-20T11:27:05.915Z,81.20
2022-09-20T11:30:08.689Z,81.20
2022-09-20T11:32:54.504Z,82.10
2022-09-20T11:35:34.800Z,84.40
2022-09-20T11:38:09.864Z,84.20
2022-09-20T11:40:48.644Z,84.90
2022-09-20T11:43:18.999Z,84.20
2022-09-20T11:45:52.916Z,83.60
2022-09-20T11:48:48.071Z,83.00
2022-09-20T11:51:31.633Z,82.20
2022-09-20T11:54:47.512Z,82.50
2022-09-20T11:57:17.250Z,80.50
2022-09-20T11:59:54.924Z,82.30
2022-09-20T12:02:58.301Z,82.30
2022-09-20T12:05:33.352Z,82.50
2022-09-20T12:08:04.496Z,82.10
2022-09-20T12:10:36.636Z,80.70
2022-09-20T12:13:22.341Z,78.40
2022-09-20T12:16:00.022Z,78.10
2022-09-20T12:18:46.644Z,74.80
2022-09-20T12:21:19.153Z,77.40
2022-09-20T12:24:19.276Z,74.50
2022-09-20T12:26:47.528Z,74.50
2022-09-20T12:29:31.559Z,75.30
2022-09-20T12:32:03.154Z,76.50
2022-09-20T12:34:36.379Z,78.10
2022-09-20T12:37:05.322Z,77.70
2022-09-20T12:39:38.129Z,76.30
2022-09-20T12:42:11.949Z,76.70
2022-09-20T12:45:08.291Z,78.10
2022-09-20T12:47:38.632Z,79.70
2022-09-20T12:50:34.018Z,79.50
2022-09-20T12:53:04.591Z,80.50
2022-09-20T12:55:53.080Z,76.50
2022-09-20T12:58:24.644Z,76.10
2022-09-20T13:00:59.578Z,77.30
2022-09-20T13:03:41.753Z,75.30
2022-09-20T13:06:12.117Z,75.10
2022-09-20T13:09:00.566Z,76.10
2022-09-20T13:11:47.862Z,76.70
2022-09-20T13:14:25.141Z,76.00
2022-09-20T13:17:07.108Z,77.00
2022-09-20T13:19:50.320Z,77.20
2022-09-20T13:22:23.974Z,76.90
2022-09-20T13:24:56.952Z,78.00
2022-09-20T13:27:32.312Z,77.00
2022-09-20T13:30:20.304Z,76.90
2022-09-20T13:32:48.970Z,76.30
2022-09-20T13:35:24.423Z,76.20
2022-09-20T13:38:00.654Z,76.20
2022-09-20T13:40:36.972Z,75.90
2022-09-20T13:43:23.160Z,76.40
2022-09-20T13:45:56.594Z,77.40
2022-09-20T13:48:30.970Z,75.80
2022-09-20T13:50:59.201Z,76.70
2022-09-20T13:53:41.123Z,76.90
2022-09-20T13:56:25.046Z,77.00
2022-09-20T13:58:53.154Z,77.20
2022-09-20T14:01:33.084Z,77.60
2022-09-20T14:04:16.294Z,77.90
2022-09-20T14:06:43.918Z,77.30
2022-09-20T14:09:21.938Z,77.50
2022-09-20T14:11:50.047Z,77.80
2022-09-20T14:14:22.207Z,78.60
2022-09-20T14:16:51.093Z,78.10
2022-09-20T14:19:21.754Z,77.70
2022-09-20T14:21:49.893Z,78.40
2022-09-20T14:24:17.846Z,78.90
2022-09-20T14:27:24.352Z,79.30
2022-09-20T14:29:57.184Z,80.20
2022-09-20T14:32:34.048Z,79.60
2022-09-20T14:35:21.404Z,79.80
2022-09-20T14:37:54.068Z,79.30
2022-09-20T14:40:31.958Z,79.70
2022-09-20T14:43:06.999Z,80.00
2022-09-20T14:45:38.018Z,80.30
2022-09-20T14:48:11.728Z,80.40
2022-09-20T14:50:45.749Z,80.20
2022-09-20T14:53:13.046Z,80.30
2022-09-20T14:55:54.819Z,79.80
2022-09-20T14:58:25.094Z,80.20
2022-09-20T15:01:05.592Z,79.50
2022-09-20T15:03:42.311Z,79.10
2022-09-20T15:06:14.990Z,79.30
2022-09-20T15:08:46.314Z,78.70
2022-09-20T15:11:20.824Z,78.90
2022-09-20T15:13:48.301Z,78.20
2022-09-20T15:16:19.010Z,78.70
2022-09-20T15:18:46.504Z,79.90
2022-09-20T15:21:14.259Z,80.70
2022-09-20T15:23:42.231Z,80.70
2022-09-20T15:26:11.935Z,80.60
2022-09-20T15:28:39.405Z,81.40
2022-09-20T15:31:07.403Z,81.90
2022-09-20T15:33:35.118Z,82.20
2022-09-20T15:36:03.869Z,82.30
2022-09-20T15:38:31.674Z,82.70
2022-09-20T15:41:04.679Z,82.40
2022-09-20T15:43:32.988Z,82.70
2022-09-20T15:46:16.788Z,82.60
2022-09-20T15:48:44.214Z,82.90
2022-09-20T15:51:13.026Z,83.30
2022-09-20T15:53:45.535Z,82.90
2022-09-20T15:56:21.564Z,83.20
2022-09-20T15:58:59.359Z,83.40
2022-09-20T16:01:28.708Z,83.60
2022-09-20T16:03:56.853Z,83.80
2022-09-20T16:06:25.458Z,83.80
2022-09-20T16:08:53.378Z,84.10
2022-09-20T16:11:23.108Z,83.90
2022-09-20T16:13:58.414Z,84.20
2022-09-20T16:16:27.702Z,84.20
2022-09-20T16:19:14.473Z,84.40
2022-09-20T16:21:43.623Z,84.80
2022-09-20T16:24:14.338Z,86.20
2022-09-20T16:26:42.414Z,86.40
2022-09-20T16:29:12.393Z,86.60
2022-09-20T16:31:46.075Z,86.60
2022-09-20T16:34:31.728Z,86.90
2022-09-20T16:37:09.179Z,86.90
2022-09-20T16:39:37.583Z,87.10
2022-09-20T16:42:07.988Z,87.60
2022-09-20T16:44:42.453Z,87.90
2022-09-20T16:47:21.258Z,88.20
2022-09-20T16:49:50.581Z,88.10
2022-09-20T16:52:19.506Z,88.50
2022-09-20T16:54:47.889Z,88.80
2022-09-20T16:57:17.489Z,88.90
2022-09-20T16:59:49.017Z,89.20
2022-09-20T17:02:17.658Z,89.20
2022-09-20T17:04:46.906Z,89.30
2022-09-20T17:07:14.257Z,89.70
2022-09-20T17:09:42.349Z,89.70
2022-09-20T17:12:12.697Z,90.20
2022-09-20T17:14:41.520Z,90.20
2022-09-20T17:17:10.910Z,90.30
2022-09-20T17:19:39.366Z,90.40
2022-09-20T17:22:08.360Z,90.90
2022-09-20T17:24:36.332Z,90.70
2022-09-20T17:27:06.263Z,90.50
2022-09-20T17:29:34.177Z,90.30
2022-09-20T17:32:02.964Z,90.40
2022-09-20T17:34:32.018Z,90.70
2022-09-20T17:37:04.587Z,90.90
2022-09-20T17:39:34.046Z,91.00
2022-09-20T17:42:03.404Z,91.30
2022-09-20T17:44:35.457Z,91.60
2022-09-20T17:47:05.452Z,91.50
2022-09-20T17:49:35.064Z,91.50
2022-09-20T17:52:02.699Z,91.40
2022-09-20T17:54:30.789Z,91.60
2022-09-20T17:56:58.797Z,91.60
2022-09-20T17:59:27.109Z,91.90
2022-09-20T18:01:54.834Z,91.90
2022-09-20T18:04:24.822Z,92.00
2022-09-20T18:06:54.148Z,92.20
2022-09-20T18:09:24.776Z,92.20
2022-09-20T18:11:54.231Z,92.10
2022-09-20T18:14:24.747Z,92.00
2022-09-20T18:16:55.976Z,92.20
2022-09-20T18:19:23.755Z,92.20
2022-09-20T18:21:52.009Z,92.50
2022-09-20T18:24:19.604Z,92.60
2022-09-20T18:26:47.016Z,93.20
2022-09-20T18:29:18.290Z,93.00
2022-09-20T18:31:51.413Z,92.90
2022-09-20T18:34:22.123Z,92.80
2022-09-20T18:36:55.335Z,93.00
2022-09-20T18:39:24.565Z,92.30
2022-09-20T18:41:53.665Z,92.30
2022-09-20T18:44:23.184Z,92.70
2022-09-20T18:46:55.566Z,92.90
2022-09-20T18:49:23.718Z,92.80
2022-09-20T18:51:51.990Z,92.90
2022-09-20T18:54:20.188Z,92.80
2022-09-20T18:56:49.799Z,93.30
2022-09-20T18:59:20.546Z,93.00
2022-09-20T19:01:51.426Z,93.20
2022-09-20T19:04:31.888Z,93.30
2022-09-20T19:07:36.739Z,93.30
2022-09-20T19:10:07.428Z,92.80
2022-09-20T19:12:48.745Z,93.10
2022-09-20T19:16:00.765Z,92.90
2022-09-20T19:18:40.158Z,93.10
2022-09-20T19:21:27.754Z,93.00
2022-09-20T19:24:19.509Z,93.00
2022-09-20T19:26:47.350Z,93.20
2022-09-20T19:29:25.282Z,93.20
2022-09-20T19:31:58.054Z,93.70
2022-09-20T19:34:29.159Z,94.20
2022-09-20T19:37:38.034Z,94.00
2022-09-20T19:40:33.262Z,93.90
2022-09-20T19:43:23.945Z,93.90
2022-09-20T19:46:18.884Z,93.90
2022-09-20T19:49:16.908Z,93.60
2022-09-20T19:51:45.867Z,93.20
2022-09-20T19:54:19.052Z,92.70
2022-09-20T19:56:56.764Z,93.00
2022-09-20T19:59:26.736Z,92.80
2022-09-20T20:01:56.708Z,93.20
2022-09-20T20:04:24.559Z,93.30
2022-09-20T20:06:58.185Z,93.50
2022-09-20T20:09:55.398Z,93.20
2022-09-20T20:12:48.924Z,93.70
2022-09-20T20:15:51.723Z,93.70
2022-09-20T20:18:25.369Z,93.70
2022-09-20T20:20:57.181Z,94.00
2022-09-20T20:23:34.044Z,94.50
2022-09-20T20:26:23.723Z,94.70
2022-09-20T20:28:53.011Z,94.80
2022-09-20T20:31:21.652Z,94.90
2022-09-20T20:33:50.093Z,95.00
2022-09-20T20:36:18.025Z,95.00
2022-09-20T20:38:50.125Z,94.90
2022-09-20T20:41:22.070Z,95.00
2022-09-20T20:43:56.435Z,94.60
2022-09-20T20:46:25.577Z,95.20
2022-09-20T20:48:53.236Z,95.20
2022-09-20T20:51:22.415Z,94.80
2022-09-20T20:53:52.625Z,95.20
2022-09-20T20:56:22.679Z,95.40
2022-09-20T20:58:50.587Z,95.30
2022-09-20T21:01:23.361Z,95.70
2022-09-20T21:03:52.897Z,95.70
2022-09-20T21:06:23.712Z,95.70
2022-09-20T21:08:51.341Z,95.80
2022-09-20T21:11:23.651Z,95.70
2022-09-20T21:13:54.939Z,95.50
2022-09-20T21:16:24.693Z,95.60
2022-09-20T21:18:52.601Z,95.40
2022-09-20T21:21:27.078Z,95.40
2022-09-20T21:23:57.595Z,95.40
2022-09-20T21:26:28.058Z,94.90
2022-09-20T21:29:00.168Z,94.90
2022-09-20T21:31:29.410Z,94.80
2022-09-20T21:33:57.333Z,94.90
2022-09-20T21:36:28.113Z,95.00
2022-09-20T21:38:56.190Z,95.00
2022-09-20T21:41:26.019Z,95.10
2022-09-20T21:43:55.818Z,95.00
2022-09-20T21:46:33.553Z,95.20
2022-09-20T21:49:04.436Z,95.20
2022-09-20T21:51:33.415Z,95.00
2022-09-20T21:54:02.120Z,94.80
2022-09-20T21:56:37.285Z,94.70
2022-09-20T21:59:07.393Z,94.90
2022-09-20T22:01:40.446Z,94.40
2022-09-20T22:04:10.174Z,94.30
2022-09-20T22:06:42.816Z,94.40
2022-09-20T22:09:15.569Z,94.30
2022-09-20T22:11:48.074Z,94.70
2022-09-20T22:14:18.532Z,94.90
2022-09-20T22:16:47.777Z,95.10
2022-09-20T22:19:17.470Z,95.00
2022-09-20T22:21:51.325Z,94.70
2022-09-20T22:24:19.267Z,94.60
2022-09-20T22:26:49.457Z,95.00
2022-09-20T22:29:18.037Z,95.20
2022-09-20T22:31:47.199Z,95.90
2022-09-20T22:34:20.186Z,95.90
2022-09-20T22:36:48.361Z,96.00
2022-09-20T22:39:16.370Z,96.10
2022-09-20T22:41:44.049Z,96.20
2022-09-20T22:44:12.028Z,96.30
2022-09-20T22:46:40.605Z,95.90
2022-09-20T22:49:09.680Z,95.30
2022-09-20T22:51:37.985Z,95.30
2022-09-20T22:54:07.865Z,95.50
2022-09-20T22:56:36.609Z,95.90
2022-09-20T22:59:09.578Z,96.20
2022-09-20T23:01:39.895Z,96.30
2022-09-20T23:04:10.643Z,96.40
2022-09-20T23:06:43.521Z,96.40
2022-09-20T23:09:13.110Z,96.10
2022-09-20T23:11:44.720Z,95.90
2022-09-20T23:14:14.369Z,95.80
2022-09-20T23:16:42.133Z,95.60
2022-09-20T23:19:10.163Z,95.40
2022-09-20T23:21:39.000Z,95.30
2022-09-20T23:24:12.072Z,95.50
2022-09-20T23:26:40.551Z,95.00
2022-09-20T23:29:13.642Z,94.90
2022-09-20T23:31:45.809Z,95.00
2022-09-20T23:34:15.058Z,94.90
2022-09-20T23:36:42.848Z,95.30
2022-09-20T23:39:11.381Z,95.70
2022-09-20T23:41:39.636Z,95.80
2022-09-20T23:44:10.019Z,95.90
2022-09-20T23:46:38.343Z,95.70
2022-09-20T23:49:07.158Z,96.00
2022-09-20T23:51:35.752Z,96.30
2022-09-20T23:54:03.454Z,96.40
2022-09-20T23:56:31.166Z,96.60
2022-09-20T23:58:58.777Z,96.90
